Time;durP1;ratioP1;P1;durP2;ratioP2;P2;SDS_P1;SDS_P2;PMS_P1;PMS_P2;Temp;Humidity;BMP_temperature;BMP_pressure;BME280_temperature;BME280_humidity;BME280_pressure;Samples;Min_cycle;Max_cycle;Signal;HPM_P1;HPM_P2
2022/11/25 00:01:29;;;;;;;31.73;17.47;;;-0.10;99.90;;;;;;5076932;28;20250;-73
2022/11/25 00:03:57;;;;;;;31.73;16.93;;;-0.10;99.90;;;;;;5075534;28;20205;-72
2022/11/25 00:06:26;;;;;;;29.17;18.73;;;-0.20;99.90;;;;;;5074592;28;20225;-72
2022/11/25 00:08:55;;;;;;;28.47;16.67;;;-0.30;99.90;;;;;;5074730;28;20197;-72
2022/11/25 00:11:23;;;;;;;27.43;17.33;;;-0.40;99.90;;;;;;5074422;28;20287;-72
2022/11/25 00:13:50;;;;;;;25.40;15.97;;;-0.40;99.90;;;;;;5074857;28;20205;-72
2022/11/25 00:16:20;;;;;;;27.17;17.60;;;-0.40;99.90;;;;;;5074543;28;20204;-72
2022/11/25 00:18:48;;;;;;;25.20;16.40;;;-0.40;99.90;;;;;;5074464;28;20193;-72
2022/11/25 00:21:18;;;;;;;26.50;17.93;;;-0.40;99.90;;;;;;5074727;28;20197;-72
2022/11/25 00:23:45;;;;;;;24.97;16.60;;;-0.40;99.90;;;;;;5074243;28;20204;-73
2022/11/25 00:26:13;;;;;;;23.83;15.60;;;-0.30;99.90;;;;;;5074364;28;20688;-72
2022/11/25 00:28:41;;;;;;;22.57;15.37;;;-0.30;99.90;;;;;;5073939;28;20652;-72
2022/11/25 00:31:10;;;;;;;22.10;14.70;;;-0.30;99.90;;;;;;5073927;28;20201;-72
2022/11/25 00:33:39;;;;;;;27.13;16.87;;;-0.30;99.90;;;;;;5073992;28;20602;-72
2022/11/25 00:36:09;;;;;;;23.63;16.83;;;-0.40;99.90;;;;;;5074105;28;20200;-73
2022/11/25 00:38:36;;;;;;;25.53;16.83;;;-0.30;99.90;;;;;;5073913;28;20193;-72
2022/11/25 00:46:31;;;;;;;27.47;16.50;;;-0.30;99.90;;;;;;5073030;28;20244;-72
2022/11/25 00:48:59;;;;;;;22.30;15.83;;;-0.30;99.90;;;;;;5073805;28;20196;-72
2022/11/25 00:51:26;;;;;;;23.20;14.87;;;-0.30;99.90;;;;;;5074230;28;20591;-72
2022/11/25 00:53:53;;;;;;;30.50;17.50;;;-0.20;99.90;;;;;;5073823;28;20709;-72
2022/11/25 00:56:22;;;;;;;27.53;15.50;;;-0.20;99.90;;;;;;5073684;28;20812;-72
2022/11/25 00:58:49;;;;;;;25.93;15.83;;;-0.40;99.90;;;;;;5073733;28;20197;-72
2022/11/25 01:01:15;;;;;;;25.67;16.20;;;-0.50;99.90;;;;;;5074115;28;20526;-72
2022/11/25 01:03:42;;;;;;;27.17;18.10;;;-0.50;99.90;;;;;;5073878;28;20659;-73
2022/11/25 01:06:11;;;;;;;24.60;15.43;;;-0.40;99.90;;;;;;5073486;28;20233;-72
2022/11/25 01:08:39;;;;;;;23.70;15.23;;;-0.60;99.90;;;;;;5073658;28;20545;-73
2022/11/25 01:11:08;;;;;;;20.43;14.90;;;-0.70;99.90;;;;;;5073926;28;20201;-72
2022/11/25 01:13:35;;;;;;;21.57;15.90;;;-0.70;99.90;;;;;;5074470;28;20243;-72
2022/11/25 01:16:02;;;;;;;27.83;16.00;;;-0.70;99.90;;;;;;5073940;28;20223;-71
2022/11/25 01:18:29;;;;;;;21.20;14.37;;;-0.70;99.90;;;;;;5073614;28;20239;-71
2022/11/25 01:21:04;;;;;;;22.53;14.80;;;-0.70;99.90;;;;;;5073383;28;20235;-72
2022/11/25 01:23:32;;;;;;;30.93;17.30;;;-0.80;99.90;;;;;;5073992;28;20201;-71
2022/11/25 01:26:01;;;;;;;26.23;16.77;;;-0.80;99.90;;;;;;5073633;28;20766;-73
2022/11/25 01:28:28;;;;;;;25.67;16.20;;;-0.70;99.90;;;;;;5073644;28;20282;-73
2022/11/25 01:31:00;;;;;;;24.50;15.43;;;-0.90;99.90;;;;;;5073278;28;20201;-72
2022/11/25 01:33:26;;;;;;;22.60;15.13;;;-0.90;99.90;;;;;;5073389;28;20205;-71
2022/11/25 01:35:53;;;;;;;24.50;16.53;;;-0.90;99.90;;;;;;5073417;28;20193;-72
2022/11/25 01:38:20;;;;;;;24.00;15.17;;;-0.90;99.90;;;;;;5073526;28;20246;-72
2022/11/25 01:40:47;;;;;;;30.10;16.20;;;-0.90;99.90;;;;;;5073614;28;20267;-72
2022/11/25 01:43:15;;;;;;;22.70;16.00;;;-0.90;99.90;;;;;;5073123;28;20247;-72
2022/11/25 01:45:41;;;;;;;24.03;15.50;;;-0.80;99.90;;;;;;5073134;28;20255;-73
2022/11/25 01:48:14;;;;;;;22.90;15.73;;;-0.90;99.90;;;;;;5073098;28;20227;-71
2022/11/25 01:50:42;;;;;;;25.73;16.10;;;-0.80;99.90;;;;;;5073380;28;20205;-71
2022/11/25 01:53:11;;;;;;;31.53;19.33;;;-0.80;99.90;;;;;;5073114;28;20207;-72
2022/11/25 01:55:42;;;;;;;32.10;19.80;;;-0.70;99.90;;;;;;5073061;28;20201;-72
2022/11/25 01:58:15;;;;;;;26.97;18.20;;;-0.70;99.90;;;;;;5076196;28;20201;-72
2022/11/25 02:00:49;;;;;;;31.70;18.33;;;-0.70;99.90;;;;;;5076914;28;20203;-72
2022/11/25 02:03:19;;;;;;;25.87;16.67;;;-0.70;99.90;;;;;;5077196;28;20288;-72
2022/11/25 02:05:50;;;;;;;33.10;19.70;;;-0.70;99.90;;;;;;5076909;28;20233;-72
2022/11/25 02:08:19;;;;;;;29.33;18.70;;;-0.80;99.90;;;;;;5076893;28;20197;-72
2022/11/25 02:10:47;;;;;;;32.87;18.63;;;-0.80;99.90;;;;;;5076815;28;20652;-73
2022/11/25 02:13:15;;;;;;;31.47;17.97;;;-0.70;99.90;;;;;;5076810;28;20201;-72
2022/11/25 02:15:42;;;;;;;31.97;18.63;;;-0.60;99.90;;;;;;5076824;28;20649;-72
2022/11/25 02:18:09;;;;;;;28.17;17.70;;;-0.70;99.90;;;;;;5076942;28;20208;-72
2022/11/25 02:20:38;;;;;;;28.87;17.73;;;-0.70;99.90;;;;;;5077268;28;20197;-72
2022/11/25 02:23:14;;;;;;;32.13;16.80;;;-0.80;99.90;;;;;;5077224;28;20204;-71
2022/11/25 02:25:44;;;;;;;27.17;17.60;;;-0.80;99.90;;;;;;5076684;28;20233;-71
2022/11/25 02:28:14;;;;;;;29.30;17.53;;;-0.80;99.90;;;;;;5076927;28;20207;-72
2022/11/25 02:30:42;;;;;;;33.40;17.27;;;-0.80;99.90;;;;;;5076878;28;20212;-71
2022/11/25 02:33:09;;;;;;;30.20;17.03;;;-0.70;99.90;;;;;;5076734;28;20196;-71
2022/11/25 02:35:37;;;;;;;29.50;16.77;;;-0.70;99.90;;;;;;5076630;28;20247;-71
2022/11/25 02:38:08;;;;;;;26.30;17.03;;;-0.70;99.90;;;;;;5076713;28;20243;-71
2022/11/25 02:40:39;;;;;;;29.07;17.67;;;-0.70;99.90;;;;;;5077157;28;20618;-71
2022/11/25 02:43:07;;;;;;;25.43;17.07;;;-0.70;99.90;;;;;;5076821;28;20200;-71
2022/11/25 02:45:51;;;;;;;29.20;18.37;;;-0.60;99.90;;;;;;5076423;28;20224;-71
2022/11/25 02:48:18;;;;;;;30.10;16.47;;;-0.70;99.90;;;;;;5076763;28;20660;-71
2022/11/25 02:50:45;;;;;;;30.17;16.63;;;-0.70;99.90;;;;;;5076302;28;20197;-72
2022/11/25 02:53:12;;;;;;;27.90;16.77;;;-0.70;99.90;;;;;;5076403;28;20197;-71
2022/11/25 02:55:39;;;;;;;27.13;16.30;;;-0.70;99.90;;;;;;5076452;28;20212;-71
2022/11/25 02:58:06;;;;;;;25.03;16.47;;;-0.80;99.90;;;;;;5076536;28;20193;-71
2022/11/25 03:00:34;;;;;;;22.17;15.40;;;-0.80;99.90;;;;;;5076139;28;20201;-71
2022/11/25 03:03:00;;;;;;;29.57;16.27;;;-0.70;99.90;;;;;;5075873;28;20215;-71
2022/11/25 03:05:27;;;;;;;30.57;16.37;;;-0.80;99.90;;;;;;5076182;28;20216;-71
2022/11/25 03:07:54;;;;;;;28.90;16.30;;;-0.80;99.90;;;;;;5075193;28;20279;-72
2022/11/25 03:10:21;;;;;;;27.50;16.37;;;-0.90;99.90;;;;;;5075405;28;20197;-71
2022/11/25 03:12:47;;;;;;;26.00;16.23;;;-0.90;99.90;;;;;;5075935;28;20200;-71
2022/11/25 03:15:14;;;;;;;21.90;15.47;;;-0.80;99.90;;;;;;5076020;28;20205;-71
2022/11/25 03:17:42;;;;;;;26.57;16.93;;;-0.80;99.90;;;;;;5075441;28;20209;-71
2022/11/25 03:20:11;;;;;;;30.07;16.67;;;-0.80;99.90;;;;;;5075522;28;20197;-71
2022/11/25 03:22:38;;;;;;;23.33;15.27;;;-0.90;99.90;;;;;;5075476;28;20675;-71
2022/11/25 03:25:06;;;;;;;25.87;16.23;;;-0.90;99.90;;;;;;5075584;28;20219;-71
2022/11/25 03:27:34;;;;;;;19.20;14.20;;;-0.80;99.90;;;;;;5075469;28;20274;-73
2022/11/25 03:30:01;;;;;;;21.73;13.63;;;-0.80;99.90;;;;;;5075599;28;20626;-73
2022/11/25 03:32:27;;;;;;;23.67;14.80;;;-0.90;99.90;;;;;;5075654;28;20266;-71
2022/11/25 03:34:55;;;;;;;26.73;17.90;;;-0.90;99.90;;;;;;5075592;28;20656;-72
2022/11/25 03:37:22;;;;;;;28.47;18.87;;;-0.90;99.90;;;;;;5075342;28;20251;-71
2022/11/25 03:39:48;;;;;;;34.20;18.60;;;-1.00;99.90;;;;;;5078411;28;20223;-71
2022/11/25 03:42:15;;;;;;;27.60;18.43;;;-0.90;99.90;;;;;;5081413;28;20197;-71
2022/11/25 03:44:42;;;;;;;29.87;18.37;;;-0.90;99.90;;;;;;5081083;28;20223;-71
2022/11/25 03:47:09;;;;;;;29.03;17.43;;;-1.00;99.90;;;;;;5080653;28;20527;-72
2022/11/25 03:49:35;;;;;;;28.17;16.73;;;-1.10;99.90;;;;;;5080511;28;20197;-71
2022/11/25 03:52:04;;;;;;;26.30;16.60;;;-1.10;99.90;;;;;;5080181;28;20207;-72
2022/11/25 03:54:30;;;;;;;27.17;17.57;;;-0.90;99.90;;;;;;5080264;28;20652;-71
2022/11/25 03:56:57;;;;;;;31.47;18.00;;;-0.90;99.90;;;;;;5079025;28;20239;-71
2022/11/25 03:59:24;;;;;;;28.67;18.23;;;-0.90;99.90;;;;;;5077364;28;20197;-73
2022/11/25 04:01:50;;;;;;;23.97;16.63;;;-0.90;99.90;;;;;;5076490;28;20197;-71
2022/11/25 04:04:17;;;;;;;24.83;15.47;;;-0.90;99.90;;;;;;5075143;28;20239;-71
2022/11/25 04:06:44;;;;;;;25.10;16.17;;;-1.00;99.90;;;;;;5074946;28;20236;-71
2022/11/25 04:09:12;;;;;;;29.77;16.37;;;-1.00;99.90;;;;;;5075094;28;20197;-71
2022/11/25 04:14:23;;;;;;;25.37;14.63;;;-1.00;99.90;;;;;;5075002;28;20197;-71
2022/11/25 04:16:49;;;;;;;26.30;16.57;;;-1.00;99.90;;;;;;5074670;28;20197;-72
2022/11/25 04:19:16;;;;;;;25.67;16.17;;;-1.00;99.90;;;;;;5074543;28;20201;-71
2022/11/25 04:21:43;;;;;;;26.50;15.27;;;-1.00;99.90;;;;;;5074489;28;20205;-72
2022/11/25 04:24:09;;;;;;;24.93;15.83;;;-1.10;99.90;;;;;;5074425;28;20200;-72
2022/11/25 04:26:37;;;;;;;23.60;14.87;;;-0.90;99.90;;;;;;5074092;28;20216;-72
2022/11/25 04:29:04;;;;;;;25.13;14.80;;;-1.00;99.90;;;;;;5074288;28;20721;-72
2022/11/25 04:31:31;;;;;;;23.10;16.63;;;-1.00;99.90;;;;;;5076192;28;20197;-72
2022/11/25 04:33:58;;;;;;;27.03;17.53;;;-1.00;99.90;;;;;;5079206;28;20209;-72
2022/11/25 04:36:25;;;;;;;31.73;17.83;;;-0.90;99.90;;;;;;5080742;28;20663;-73
2022/11/25 04:38:51;;;;;;;30.07;17.70;;;-1.00;99.90;;;;;;5081823;28;20201;-72
2022/11/25 04:41:18;;;;;;;36.47;20.57;;;-1.00;99.90;;;;;;5081951;28;20211;-72
2022/11/25 04:43:46;;;;;;;29.23;17.50;;;-1.00;99.90;;;;;;5078181;28;20263;-72
2022/11/25 04:46:16;;;;;;;28.80;17.10;;;-1.00;99.90;;;;;;5081549;28;20225;-72
2022/11/25 04:48:43;;;;;;;23.87;16.03;;;-1.10;99.90;;;;;;5082037;28;20202;-72
2022/11/25 04:51:10;;;;;;;23.07;16.03;;;-1.10;99.90;;;;;;5081228;28;20659;-72
2022/11/25 04:53:36;;;;;;;26.70;16.03;;;-1.10;99.90;;;;;;5077202;28;20634;-72
2022/11/25 04:56:03;;;;;;;28.37;16.27;;;-1.10;99.90;;;;;;5075027;28;20274;-72
2022/11/25 05:01:16;;;;;;;33.93;16.83;;;-1.10;99.90;;;;;;5074024;28;20718;-72
2022/11/25 05:03:42;;;;;;;28.87;16.53;;;-1.10;99.90;;;;;;5073664;28;20714;-72
2022/11/25 05:06:10;;;;;;;32.57;17.33;;;-1.10;99.90;;;;;;5073449;28;20236;-72
2022/11/25 05:08:36;;;;;;;31.87;17.77;;;-1.20;99.90;;;;;;5073970;28;20254;-72
2022/11/25 05:11:03;;;;;;;29.77;16.43;;;-1.30;99.90;;;;;;5074037;28;20201;-72
2022/11/25 05:13:30;;;;;;;30.63;16.63;;;-1.40;99.90;;;;;;5073779;28;20197;-72
2022/11/25 05:15:58;;;;;;;23.90;16.23;;;-1.40;99.90;;;;;;5073795;28;20201;-72
2022/11/25 05:18:26;;;;;;;29.67;15.30;;;-1.40;99.90;;;;;;5073777;28;20205;-72
2022/11/25 05:20:53;;;;;;;30.07;17.43;;;-1.50;99.90;;;;;;5074058;28;20262;-72
2022/11/25 05:23:20;;;;;;;29.97;16.90;;;-1.50;99.90;;;;;;5073824;28;20602;-72
2022/11/25 05:25:46;;;;;;;27.97;16.23;;;-1.50;99.90;;;;;;5073565;28;20656;-72
2022/11/25 05:28:13;;;;;;;30.83;17.40;;;-1.40;99.90;;;;;;5073474;28;20193;-72
2022/11/25 05:30:41;;;;;;;35.10;19.23;;;-1.50;99.90;;;;;;5073411;28;20201;-72
2022/11/25 05:33:07;;;;;;;39.27;18.60;;;-1.40;99.90;;;;;;5072690;28;20671;-72
2022/11/25 05:35:35;;;;;;;37.80;19.00;;;-1.30;99.90;;;;;;5073489;28;20201;-73
2022/11/25 05:38:03;;;;;;;38.50;20.03;;;-1.30;99.90;;;;;;5073309;28;20198;-72
2022/11/25 05:40:30;;;;;;;42.50;20.40;;;-1.30;99.90;;;;;;5073009;28;20587;-72
2022/11/25 05:43:00;;;;;;;38.07;20.67;;;-1.30;99.90;;;;;;5073297;28;20258;-72
2022/11/25 05:45:26;;;;;;;38.33;19.73;;;-1.30;99.90;;;;;;5073228;28;20259;-72
2022/11/25 05:47:54;;;;;;;38.10;19.90;;;-1.20;99.90;;;;;;5073102;28;20221;-72
2022/11/25 05:50:21;;;;;;;41.13;20.97;;;-1.10;99.90;;;;;;5073453;28;20210;-72
2022/11/25 05:52:49;;;;;;;42.50;20.93;;;-1.10;99.90;;;;;;5073440;28;20201;-72
2022/11/25 05:55:16;;;;;;;47.50;21.20;;;-1.00;99.90;;;;;;5073442;28;20197;-72
2022/11/25 05:57:42;;;;;;;39.27;20.97;;;-0.90;99.90;;;;;;5073595;28;20208;-72
2022/11/25 06:00:10;;;;;;;41.27;21.53;;;-1.00;99.90;;;;;;5073310;28;20596;-72
2022/11/25 06:02:36;;;;;;;40.73;21.07;;;-1.00;99.90;;;;;;5073157;28;20338;-72
2022/11/25 06:05:03;;;;;;;47.47;22.80;;;-1.00;99.90;;;;;;5073129;28;20242;-72
2022/11/25 06:07:30;;;;;;;36.53;22.10;;;-0.80;99.90;;;;;;5072863;28;20240;-72
2022/11/25 06:09:58;;;;;;;38.80;22.40;;;-0.80;99.90;;;;;;5073405;28;20201;-72
2022/11/25 06:12:25;;;;;;;42.43;22.83;;;-0.80;99.90;;;;;;5073175;28;20201;-72
2022/11/25 06:14:51;;;;;;;43.27;23.17;;;-0.70;99.90;;;;;;5073347;28;20201;-72
2022/11/25 06:17:18;;;;;;;47.63;23.37;;;-0.80;99.90;;;;;;5073332;28;20250;-72
2022/11/25 06:19:46;;;;;;;50.50;26.27;;;-0.70;99.90;;;;;;5073018;28;20648;-72
2022/11/25 06:22:14;;;;;;;51.10;26.50;;;-0.70;99.90;;;;;;5072949;28;20250;-72
2022/11/25 06:24:40;;;;;;;46.33;25.43;;;-0.70;99.90;;;;;;5073199;28;20201;-72
2022/11/25 06:27:08;;;;;;;54.00;27.47;;;-0.60;99.90;;;;;;5073012;28;20270;-72
2022/11/25 06:29:35;;;;;;;49.03;25.87;;;-0.60;99.90;;;;;;5072734;28;20243;-72
2022/11/25 06:32:02;;;;;;;48.87;27.97;;;-0.60;99.90;;;;;;5072839;28;20197;-72
2022/11/25 06:34:28;;;;;;;58.80;29.57;;;-0.60;99.90;;;;;;5072668;28;20697;-72
2022/11/25 06:36:55;;;;;;;61.10;31.17;;;-0.50;99.90;;;;;;5072750;28;20597;-72
2022/11/25 06:39:22;;;;;;;56.67;30.47;;;-0.50;99.90;;;;;;5072767;28;20223;-72
2022/11/25 06:41:48;;;;;;;63.80;32.50;;;-0.30;99.90;;;;;;5072590;28;20201;-72
2022/11/25 06:44:16;;;;;;;61.20;31.90;;;-0.30;99.90;;;;;;5074409;28;20598;-72
2022/11/25 06:46:43;;;;;;;62.53;30.87;;;-0.20;99.90;;;;;;5076168;28;20753;-72
2022/11/25 06:49:10;;;;;;;68.13;33.20;;;-0.20;99.90;;;;;;5076298;28;20199;-72
2022/11/25 06:51:37;;;;;;;64.87;34.13;;;-0.10;99.90;;;;;;5076270;28;20205;-72
2022/11/25 06:54:03;;;;;;;55.23;29.27;;;-0.10;99.90;;;;;;5076124;28;20201;-72
2022/11/25 06:56:30;;;;;;;47.53;27.47;;;-0.10;99.90;;;;;;5076293;28;20201;-72
2022/11/25 06:58:57;;;;;;;57.13;29.07;;;-0.10;99.90;;;;;;5076284;28;20196;-72
2022/11/25 07:01:27;;;;;;;59.33;30.03;;;0.00;99.90;;;;;;5076136;28;20201;-72
2022/11/25 07:03:58;;;;;;;60.77;30.20;;;0.00;99.90;;;;;;5076048;28;20193;-72
2022/11/25 07:06:24;;;;;;;52.63;30.60;;;0.00;99.90;;;;;;5075508;28;20229;-72
2022/11/25 07:08:51;;;;;;;57.30;32.90;;;0.20;99.90;;;;;;5075826;28;20197;-72
2022/11/25 07:11:21;;;;;;;56.63;31.13;;;0.30;99.90;;;;;;5075940;28;20648;-72
2022/11/25 07:13:51;;;;;;;58.33;31.80;;;0.40;99.90;;;;;;5075404;28;20606;-72
2022/11/25 07:16:18;;;;;;;52.30;30.20;;;0.50;99.90;;;;;;5075807;28;20602;-72
2022/11/25 07:18:46;;;;;;;61.77;33.17;;;0.50;99.90;;;;;;5076009;28;20196;-72
2022/11/25 07:21:14;;;;;;;59.17;32.40;;;0.60;99.90;;;;;;5075683;28;20231;-72
2022/11/25 07:23:42;;;;;;;56.90;32.73;;;0.70;99.90;;;;;;5075459;28;20660;-72
2022/11/25 07:26:12;;;;;;;63.37;33.40;;;0.70;99.90;;;;;;5076401;28;20266;-72
2022/11/25 07:28:39;;;;;;;58.03;32.37;;;0.70;99.90;;;;;;5076098;28;20213;-72
2022/11/25 07:31:07;;;;;;;65.23;32.60;;;0.80;99.90;;;;;;5075517;28;20231;-72
2022/11/25 07:33:35;;;;;;;57.77;32.97;;;0.80;99.90;;;;;;5075992;28;20197;-72
2022/11/25 07:36:04;;;;;;;61.37;32.77;;;0.80;99.90;;;;;;5075519;28;20262;-72
2022/11/25 07:38:30;;;;;;;67.20;34.30;;;0.90;99.90;;;;;;5075455;28;20205;-72
2022/11/25 07:41:03;;;;;;;61.00;33.03;;;0.90;99.90;;;;;;5075817;28;20274;-72
2022/11/25 07:43:30;;;;;;;66.13;35.33;;;1.00;99.90;;;;;;5075736;28;20197;-72
2022/11/25 07:45:57;;;;;;;70.67;35.30;;;1.00;99.90;;;;;;5075650;28;20200;-71
2022/11/25 07:48:23;;;;;;;68.10;35.03;;;1.00;99.90;;;;;;5075216;28;20224;-71
2022/11/25 07:50:51;;;;;;;63.77;33.87;;;0.90;99.90;;;;;;5074994;28;20254;-71
2022/11/25 07:53:19;;;;;;;62.63;35.60;;;1.00;99.90;;;;;;5075179;28;20193;-71
2022/11/25 07:55:46;;;;;;;62.47;33.60;;;0.90;99.90;;;;;;5074507;28;20197;-72
2022/11/25 07:58:12;;;;;;;59.20;32.97;;;0.90;99.90;;;;;;5075443;28;20254;-71
2022/11/25 08:00:39;;;;;;;70.97;35.07;;;1.00;99.90;;;;;;5075338;28;20612;-71
2022/11/25 08:03:05;;;;;;;61.77;34.67;;;1.00;99.90;;;;;;5075374;28;20247;-71
2022/11/25 08:05:33;;;;;;;57.03;33.57;;;1.00;99.90;;;;;;5075134;28;20197;-71
2022/11/25 08:08:00;;;;;;;65.20;34.23;;;1.20;99.90;;;;;;5075038;28;20224;-71
2022/11/25 08:10:28;;;;;;;65.90;35.67;;;1.40;99.90;;;;;;5075194;28;20243;-71
2022/11/25 08:12:55;;;;;;;52.87;34.43;;;1.60;99.90;;;;;;5074594;28;20702;-71
2022/11/25 08:15:21;;;;;;;58.37;34.83;;;1.70;99.90;;;;;;5074536;28;20257;-71
2022/11/25 08:17:51;;;;;;;63.43;35.10;;;1.90;99.90;;;;;;5074776;28;20254;-71
2022/11/25 08:20:18;;;;;;;56.27;35.57;;;2.10;99.90;;;;;;5074718;28;20293;-72
2022/11/25 08:22:45;;;;;;;64.10;37.23;;;2.30;99.90;;;;;;5074532;28;20250;-72
2022/11/25 08:25:11;;;;;;;67.63;38.13;;;2.50;99.90;;;;;;5074328;28;20622;-71
2022/11/25 08:27:40;;;;;;;60.93;39.10;;;2.70;99.90;;;;;;5074334;28;20217;-72
2022/11/25 08:30:08;;;;;;;64.37;40.90;;;2.80;99.90;;;;;;5074131;28;20201;-72
2022/11/25 08:32:37;;;;;;;65.20;44.33;;;3.00;99.90;;;;;;5074092;28;20201;-72
2022/11/25 08:35:06;;;;;;;60.30;41.70;;;3.30;99.90;;;;;;5074485;28;20232;-72
2022/11/25 08:37:32;;;;;;;62.37;40.80;;;3.40;99.90;;;;;;5074286;28;20205;-72
2022/11/25 08:39:59;;;;;;;62.20;42.10;;;3.60;99.90;;;;;;5074121;28;20224;-72
2022/11/25 08:42:26;;;;;;;58.83;38.00;;;3.70;99.90;;;;;;5074239;28;20280;-72
2022/11/25 08:44:55;;;;;;;46.67;34.57;;;3.80;99.90;;;;;;5074000;28;20200;-72
2022/11/25 08:47:22;;;;;;;46.07;35.20;;;3.90;99.90;;;;;;5074093;28;20220;-72
2022/11/25 08:49:50;;;;;;;44.03;33.27;;;4.10;99.90;;;;;;5073612;28;20662;-72
2022/11/25 08:52:17;;;;;;;44.33;34.00;;;4.30;99.90;;;;;;5073219;28;20652;-71
2022/11/25 08:54:44;;;;;;;34.73;26.73;;;4.50;99.90;;;;;;5072964;28;20204;-72
2022/11/25 08:57:11;;;;;;;25.00;21.53;;;4.70;99.90;;;;;;5073033;28;20201;-72
2022/11/25 08:59:37;;;;;;;22.83;18.60;;;5.00;99.90;;;;;;5072885;28;20205;-72
2022/11/25 09:02:06;;;;;;;20.37;17.33;;;5.00;99.90;;;;;;5072844;28;20678;-72
2022/11/25 09:04:33;;;;;;;20.60;16.63;;;4.90;99.90;;;;;;5073101;28;20227;-72
2022/11/25 09:07:00;;;;;;;19.33;17.10;;;4.90;99.90;;;;;;5072127;28;20239;-72
2022/11/25 09:09:27;;;;;;;17.90;14.77;;;5.20;99.90;;;;;;5073064;28;20729;-72
2022/11/25 09:11:54;;;;;;;16.37;12.73;;;5.50;99.90;;;;;;5072753;28;20197;-72
2022/11/25 09:14:20;;;;;;;13.57;11.77;;;5.80;99.90;;;;;;5073048;28;20239;-72
2022/11/25 09:16:48;;;;;;;12.97;10.40;;;6.10;99.90;;;;;;5073029;28;20205;-72
2022/11/25 09:19:16;;;;;;;9.93;8.97;;;6.30;99.90;;;;;;5073014;28;20233;-72
2022/11/25 09:21:43;;;;;;;9.17;8.17;;;6.50;99.90;;;;;;5072819;28;20204;-72
2022/11/25 09:24:09;;;;;;;9.23;8.30;;;6.70;99.90;;;;;;5072970;28;20246;-72
2022/11/25 09:26:39;;;;;;;11.03;8.30;;;6.90;99.90;;;;;;5072797;28;20197;-72
2022/11/25 09:29:06;;;;;;;9.33;7.60;;;7.00;99.90;;;;;;5072932;28;20278;-72
2022/11/25 09:31:34;;;;;;;9.65;7.60;;;7.30;99.90;;;;;;5072914;28;20266;-72
2022/11/25 09:34:00;;;;;;;8.00;7.20;;;7.50;99.90;;;;;;5073006;28;20204;-72
2022/11/25 09:36:28;;;;;;;8.07;7.18;;;7.60;99.90;;;;;;5072714;28;20204;-72
2022/11/25 09:38:56;;;;;;;8.55;7.50;;;7.80;99.90;;;;;;5072614;28;20192;-72
2022/11/25 09:47:36;;;;;;;9.00;7.10;;;8.20;99.90;;;;;;5072458;28;20232;-72
2022/11/25 09:50:13;;;;;;;9.23;7.15;;;8.40;99.90;;;;;;5072661;28;20254;-72
2022/11/25 09:52:52;;;;;;;9.77;8.50;;;8.90;99.90;;;;;;5072662;28;20254;-72
2022/11/25 09:55:22;;;;;;;11.38;7.43;;;9.20;99.90;;;;;;5072409;28;20317;-72
2022/11/25 09:58:00;;;;;;;8.68;7.88;;;9.20;99.90;;;;;;5072262;28;20201;-72
2022/11/25 10:00:37;;;;;;;8.48;7.63;;;9.30;99.90;;;;;;5072538;28;20197;-73
2022/11/25 10:03:11;;;;;;;6.72;6.13;;;9.70;99.90;;;;;;5072441;28;20196;-72
2022/11/25 10:05:43;;;;;;;11.00;9.90;;;9.70;99.90;;;;;;5072131;28;20197;-72
2022/11/25 10:08:15;;;;;;;7.10;6.40;;;10.30;99.90;;;;;;5072210;28;20229;-72
2022/11/25 10:10:45;;;;;;;7.32;5.90;;;11.10;99.90;;;;;;5072461;28;20201;-73
2022/11/25 10:13:19;;;;;;;7.47;6.70;;;11.90;99.90;;;;;;5072377;28;20255;-73
2022/11/25 10:15:50;;;;;;;9.15;5.72;;;13.50;99.90;;;;;;5072357;28;20246;-73
2022/11/25 10:18:23;;;;;;;6.50;5.85;;;12.50;99.90;;;;;;5073783;28;20197;-72
2022/11/25 10:20:51;;;;;;;7.07;6.20;;;10.60;99.90;;;;;;5076224;28;20205;-73
2022/11/25 10:23:24;;;;;;;8.40;6.63;;;10.10;99.90;;;;;;5076198;28;20599;-72
2022/11/25 10:25:55;;;;;;;11.07;6.53;;;9.80;99.90;;;;;;5075860;28;20197;-73
2022/11/25 10:28:23;;;;;;;6.97;6.10;;;9.30;99.90;;;;;;5075870;28;20313;-72
2022/11/25 10:30:58;;;;;;;12.37;7.57;;;8.50;99.90;;;;;;5075755;28;20726;-72
2022/11/25 10:33:28;;;;;;;8.53;6.47;;;8.40;99.90;;;;;;5075996;28;20205;-73
2022/11/25 10:35:58;;;;;;;9.73;6.67;;;8.50;99.90;;;;;;5075856;28;20272;-72
2022/11/25 10:38:34;;;;;;;10.17;7.00;;;8.80;99.90;;;;;;5075622;28;20657;-72
2022/11/25 10:41:03;;;;;;;8.13;6.67;;;8.70;99.90;;;;;;5075816;28;20200;-72
2022/11/25 10:43:30;;;;;;;7.33;6.33;;;8.70;99.90;;;;;;5075695;28;20197;-73
2022/11/25 10:46:08;;;;;;;10.17;7.17;;;8.80;99.90;;;;;;5075918;28;20193;-73
2022/11/25 10:48:54;;;;;;;10.13;6.17;;;9.40;99.90;;;;;;5075711;28;20228;-73
2022/11/25 10:51:40;;;;;;;7.90;6.33;;;9.40;99.90;;;;;;5075794;28;20277;-73
2022/11/25 10:54:18;;;;;;;8.57;6.90;;;9.60;99.90;;;;;;5075530;28;20242;-73
2022/11/25 10:56:53;;;;;;;6.80;6.10;;;11.20;99.90;;;;;;5075620;28;20296;-73
2022/11/25 10:59:26;;;;;;;7.97;7.17;;;11.60;99.90;;;;;;5075453;28;20201;-73
2022/11/25 11:02:05;;;;;;;10.67;6.13;;;14.20;99.90;;;;;;5075232;28;20204;-74
2022/11/25 11:04:33;;;;;;;10.73;7.50;;;12.20;99.90;;;;;;5074987;28;20193;-74
2022/11/25 11:07:08;;;;;;;13.80;7.50;;;10.40;99.90;;;;;;5075262;28;20225;-74
2022/11/25 11:09:39;;;;;;;27.20;19.33;;;9.70;99.90;;;;;;5075258;28;20227;-73
2022/11/25 11:12:20;;;;;;;15.00;7.43;;;9.20;99.90;;;;;;5075452;28;20200;-74
2022/11/25 11:14:47;;;;;;;16.27;10.20;;;8.90;99.90;;;;;;5075190;28;20262;-74
2022/11/25 11:17:28;;;;;;;19.13;15.07;;;8.70;99.90;;;;;;5075228;28;20607;-74
2022/11/25 11:20:10;;;;;;;15.13;13.57;;;8.80;99.90;;;;;;5074919;28;20595;-73
2022/11/25 11:22:46;;;;;;;9.97;8.60;;;8.90;99.90;;;;;;5075031;28;20201;-73
2022/11/25 11:25:31;;;;;;;12.80;9.93;;;9.00;99.90;;;;;;5074794;28;20658;-73
2022/11/25 11:27:58;;;;;;;8.43;6.90;;;8.80;99.90;;;;;;5074776;28;20236;-73
2022/11/25 11:30:26;;;;;;;11.70;9.43;;;8.60;99.90;;;;;;5074091;28;20226;-73
2022/11/25 11:33:02;;;;;;;9.60;7.30;;;8.60;99.90;;;;;;5074881;28;20259;-74
2022/11/25 11:35:37;;;;;;;11.47;10.27;;;8.40;99.90;;;;;;5074700;28;20219;-73
2022/11/25 11:38:14;;;;;;;9.90;7.20;;;8.30;99.90;;;;;;5074824;28;20200;-73
2022/11/25 11:40:48;;;;;;;8.00;6.27;;;8.40;99.90;;;;;;5074721;28;20205;-73
2022/11/25 11:43:45;;;;;;;8.47;7.10;;;8.50;99.90;;;;;;5074569;28;20200;-73
2022/11/25 11:46:25;;;;;;;9.20;7.40;;;8.50;99.90;;;;;;5074376;28;20652;-73
2022/11/25 11:49:05;;;;;;;9.37;6.90;;;8.60;99.90;;;;;;5074231;28;20683;-73
2022/11/25 11:51:43;;;;;;;9.23;6.83;;;8.60;99.90;;;;;;5074269;28;20201;-73
2022/11/25 11:54:17;;;;;;;7.87;6.70;;;8.60;99.90;;;;;;5074172;28;20590;-73
2022/11/25 11:56:50;;;;;;;8.87;6.47;;;8.70;99.90;;;;;;5074402;28;20205;-74
2022/11/25 11:59:39;;;;;;;9.70;7.30;;;8.70;99.90;;;;;;5074235;28;20205;-73
2022/11/25 12:02:23;;;;;;;9.17;6.83;;;8.80;99.90;;;;;;5073961;28;20304;-74
2022/11/25 12:04:55;;;;;;;7.23;6.53;;;8.70;99.90;;;;;;5074045;28;20648;-73
2022/11/25 12:07:29;;;;;;;10.70;6.60;;;8.70;99.90;;;;;;5073922;28;20286;-74
2022/11/25 12:10:01;;;;;;;56.30;46.03;;;8.80;99.90;;;;;;5074027;28;20280;-73
2022/11/25 12:12:35;;;;;;;8.63;7.67;;;8.80;99.90;;;;;;5073969;28;20200;-73
2022/11/25 12:15:09;;;;;;;8.27;6.90;;;8.80;99.90;;;;;;5073785;28;20230;-73
2022/11/25 12:17:43;;;;;;;9.17;8.00;;;8.60;99.90;;;;;;5073823;28;20243;-72
2022/11/25 12:20:18;;;;;;;15.27;12.07;;;8.50;99.90;;;;;;5073811;28;20253;-73
2022/11/25 12:22:50;;;;;;;10.33;8.63;;;8.50;99.90;;;;;;5073683;28;20555;-72
2022/11/25 12:25:21;;;;;;;14.87;9.80;;;8.50;99.90;;;;;;5073597;28;20648;-72
2022/11/25 12:27:53;;;;;;;12.80;9.00;;;8.40;99.90;;;;;;5073577;28;20250;-73
2022/11/25 12:30:22;;;;;;;7.90;5.97;;;8.40;99.90;;;;;;5073441;28;20648;-72
2022/11/25 12:32:56;;;;;;;7.87;5.40;;;8.40;99.90;;;;;;5073556;28;20201;-72
2022/11/25 12:35:34;;;;;;;6.57;5.87;;;8.50;99.90;;;;;;5073538;28;20197;-73
2022/11/25 12:38:05;;;;;;;9.43;6.00;;;8.50;99.90;;;;;;5073443;28;20213;-73
2022/11/25 12:40:35;;;;;;;7.67;5.13;;;8.40;99.90;;;;;;5073573;28;20201;-73
2022/11/25 12:43:17;;;;;;;9.50;5.23;;;8.20;99.90;;;;;;5073323;28;20201;-73
2022/11/25 12:45:46;;;;;;;9.10;5.13;;;8.10;99.90;;;;;;5073450;28;20200;-73
2022/11/25 12:48:12;;;;;;;7.00;5.00;;;8.00;99.90;;;;;;5073108;28;20228;-73
2022/11/25 12:50:50;;;;;;;6.90;4.33;;;7.90;99.90;;;;;;5073166;28;20655;-73
2022/11/25 12:53:28;;;;;;;8.50;4.87;;;7.80;99.90;;;;;;5073412;28;20207;-72
2022/11/25 12:55:58;;;;;;;8.07;4.37;;;7.70;99.90;;;;;;5073499;28;20725;-73
2022/11/25 12:58:49;;;;;;;7.97;5.40;;;7.50;99.90;;;;;;5073591;28;20201;-73
2022/11/25 13:01:36;;;;;;;11.73;6.07;;;7.50;99.90;;;;;;5073487;28;20591;-73
2022/11/25 13:04:23;;;;;;;21.50;10.07;;;7.40;99.90;;;;;;5073437;28;20193;-72